createdAt,value
2019-02-18T00:00:26.481Z,1015.95
2019-02-18T00:01:26.466Z,1015.97
2019-02-18T00:02:26.456Z,1015.94
2019-02-18T00:03:26.438Z,1015.97
2019-02-18T00:04:26.440Z,1015.97
2019-02-18T00:05:26.419Z,1015.91
2019-02-18T00:06:26.421Z,1015.95
2019-02-18T00:07:26.398Z,1015.95
2019-02-18T00:08:26.405Z,1015.93
2019-02-18T00:09:26.386Z,1015.94
2019-02-18T00:10:26.369Z,1015.92
2019-02-18T00:11:26.387Z,1015.91
2019-02-18T00:12:26.347Z,1015.91
2019-02-18T00:13:26.337Z,1015.92
2019-02-18T00:14:26.326Z,1015.91
2019-02-18T00:15:26.321Z,1015.92
2019-02-18T00:16:26.299Z,1015.99
2019-02-18T00:17:26.303Z,1015.97
2019-02-18T00:18:26.282Z,1016.02
2019-02-18T00:19:26.270Z,1015.99
2019-02-18T00:20:26.262Z,1015.99
2019-02-18T00:21:26.247Z,1016.00
2019-02-18T00:22:26.321Z,1015.99
2019-02-18T00:23:26.230Z,1015.99
2019-02-18T00:24:26.214Z,1015.96
2019-02-18T00:25:26.210Z,1015.97
2019-02-18T00:26:26.193Z,1015.91
2019-02-18T00:27:26.232Z,1015.93
2019-02-18T00:28:26.171Z,1015.91
2019-02-18T00:29:26.161Z,1015.88
2019-02-18T00:30:26.156Z,1015.87
2019-02-18T00:31:26.148Z,1015.89
2019-02-18T00:32:26.131Z,1015.85
2019-02-18T00:33:26.126Z,1015.83
2019-02-18T00:34:26.114Z,1015.81
2019-02-18T00:35:26.097Z,1015.81
2019-02-18T00:36:26.093Z,1015.81
2019-02-18T00:37:26.078Z,1015.82
2019-02-18T00:38:26.082Z,1015.83
2019-02-18T00:39:26.057Z,1015.82
2019-02-18T00:40:26.047Z,1015.86
2019-02-18T00:41:26.040Z,1015.83
2019-02-18T00:42:26.024Z,1015.84
2019-02-18T00:43:26.056Z,1015.80
2019-02-18T00:44:26.007Z,1015.82
2019-02-18T00:45:25.992Z,1015.80
2019-02-18T00:46:25.987Z,1015.77
2019-02-18T00:47:25.976Z,1015.75
2019-02-18T00:48:25.962Z,1015.79
2019-02-18T00:49:25.964Z,1015.79
2019-02-18T00:50:25.942Z,1015.80
2019-02-18T00:51:25.931Z,1015.80
2019-02-18T00:52:25.967Z,1015.75
2019-02-18T00:53:25.916Z,1015.76
2019-02-18T00:54:25.936Z,1015.77
2019-02-18T00:55:25.893Z,1015.75
2019-02-18T00:56:25.878Z,1015.73
2019-02-18T00:57:25.873Z,1015.76
2019-02-18T00:58:25.862Z,1015.76
2019-02-18T00:59:25.852Z,1015.72
2019-02-18T01:00:25.850Z,1015.75
2019-02-18T01:01:25.829Z,1015.75
2019-02-18T01:02:25.816Z,1015.75
2019-02-18T01:03:25.818Z,1015.67
2019-02-18T01:04:25.802Z,1015.71
2019-02-18T01:05:25.800Z,1015.71
2019-02-18T01:06:25.781Z,1015.69
2019-02-18T01:07:34.526Z,1015.74
2019-02-18T01:08:26.755Z,1015.75
2019-02-18T01:09:25.746Z,1015.77
2019-02-18T01:10:25.771Z,1015.75
2019-02-18T01:11:25.724Z,1015.77
2019-02-18T01:12:25.718Z,1015.75
2019-02-18T01:13:25.705Z,1015.72
2019-02-18T01:14:25.690Z,1015.72
2019-02-18T01:15:25.686Z,1015.73
2019-02-18T01:16:25.686Z,1015.72
2019-02-18T01:17:25.661Z,1015.69
2019-02-18T01:18:25.647Z,1015.76
2019-02-18T01:19:25.637Z,1015.65
2019-02-18T01:20:25.626Z,1015.64
2019-02-18T01:21:25.665Z,1015.65
2019-02-18T01:22:25.610Z,1015.63
2019-02-18T01:23:25.595Z,1015.67
2019-02-18T01:24:25.589Z,1015.66
2019-02-18T01:25:25.578Z,1015.69
2019-02-18T01:26:25.564Z,1015.66
2019-02-18T01:27:25.567Z,1015.64
2019-02-18T01:28:25.547Z,1015.66
2019-02-18T01:29:25.550Z,1015.64
2019-02-18T01:30:25.524Z,1015.70
2019-02-18T01:31:25.515Z,1015.67
2019-02-18T01:32:25.507Z,1015.63
2019-02-18T01:33:25.500Z,1015.60
2019-02-18T01:34:25.483Z,1015.61
2019-02-18T01:35:25.465Z,1015.60
2019-02-18T01:36:25.462Z,1015.56
2019-02-18T01:37:25.457Z,1015.55
2019-02-18T01:38:25.447Z,1015.57
2019-02-18T01:39:25.451Z,1015.56
2019-02-18T01:40:25.416Z,1015.52
2019-02-18T01:41:25.403Z,1015.55
2019-02-18T01:42:25.406Z,1015.55
2019-02-18T01:43:25.391Z,1015.51
2019-02-18T01:44:25.386Z,1015.44
2019-02-18T01:45:25.367Z,1015.47
2019-02-18T01:46:25.359Z,1015.44
2019-02-18T01:47:25.359Z,1015.48
2019-02-18T01:48:25.342Z,1015.46
2019-02-18T01:49:25.333Z,1015.45
2019-02-18T01:50:25.308Z,1015.42
2019-02-18T01:51:25.303Z,1015.44
2019-02-18T01:52:25.287Z,1015.45
2019-02-18T01:53:25.318Z,1015.44
2019-02-18T01:54:25.267Z,1015.45
2019-02-18T01:55:25.260Z,1015.44
2019-02-18T01:56:25.249Z,1015.44
2019-02-18T01:57:25.234Z,1015.44
2019-02-18T01:58:25.229Z,1015.37
2019-02-18T01:59:25.264Z,1015.42
2019-02-18T02:00:25.209Z,1015.39
2019-02-18T02:01:25.191Z,1015.39
2019-02-18T02:02:25.188Z,1015.37
2019-02-18T02:03:25.393Z,1015.38
2019-02-18T02:04:25.181Z,1015.41
2019-02-18T02:05:25.165Z,1015.35
2019-02-18T02:06:25.144Z,1015.37
2019-02-18T02:07:25.129Z,1015.38
2019-02-18T02:08:25.118Z,1015.40
2019-02-18T02:09:25.113Z,1015.39
2019-02-18T02:10:25.114Z,1015.38
2019-02-18T02:11:25.087Z,1015.35
2019-02-18T02:12:25.081Z,1015.34
2019-02-18T02:13:25.066Z,1015.35
2019-02-18T02:14:25.065Z,1015.35
2019-02-18T02:15:25.056Z,1015.34
2019-02-18T02:16:25.037Z,1015.33
2019-02-18T02:17:25.025Z,1015.35
2019-02-18T02:18:25.017Z,1015.33
2019-02-18T02:19:25.007Z,1015.28
2019-02-18T02:20:24.999Z,1015.29
2019-02-18T02:21:25.014Z,1015.27
2019-02-18T02:22:24.970Z,1015.28
2019-02-18T02:23:25.008Z,1015.26
2019-02-18T02:24:25.004Z,1015.23
2019-02-18T02:25:24.938Z,1015.25
2019-02-18T02:26:24.929Z,1015.26
2019-02-18T02:27:24.927Z,1015.26
2019-02-18T02:28:24.911Z,1015.27
2019-02-18T02:29:31.942Z,1015.30
2019-02-18T02:30:24.887Z,1015.36
2019-02-18T02:31:24.887Z,1015.30
2019-02-18T02:32:24.874Z,1015.30
2019-02-18T02:33:24.855Z,1015.28
2019-02-18T02:34:24.852Z,1015.27
2019-02-18T02:35:24.832Z,1015.25
2019-02-18T02:36:24.826Z,1015.24
2019-02-18T02:37:24.831Z,1015.22
2019-02-18T02:38:24.802Z,1015.25
2019-02-18T02:39:24.790Z,1015.24
2019-02-18T02:40:24.788Z,1015.24
2019-02-18T02:41:24.775Z,1015.22
2019-02-18T02:42:24.767Z,1015.15
2019-02-18T02:43:24.762Z,1015.17
2019-02-18T02:44:24.745Z,1015.14
2019-02-18T02:45:24.732Z,1015.15
2019-02-18T02:46:24.715Z,1015.13
2019-02-18T02:47:24.718Z,1015.07
2019-02-18T02:48:24.704Z,1015.06
2019-02-18T02:49:24.686Z,1015.07
2019-02-18T02:50:24.674Z,1015.09
2019-02-18T02:51:24.667Z,1015.03
2019-02-18T02:52:24.653Z,1015.07
2019-02-18T02:53:24.671Z,1015.05
2019-02-18T02:54:24.637Z,1015.02
2019-02-18T02:55:24.623Z,1015.00
2019-02-18T02:56:24.620Z,1015.02
2019-02-18T02:57:24.610Z,1015.01
2019-02-18T02:58:24.596Z,1015.03
2019-02-18T02:59:24.602Z,1015.02
2019-02-18T03:00:24.577Z,1015.01
2019-02-18T03:01:24.563Z,1014.98
2019-02-18T03:02:24.552Z,1014.97
2019-02-18T03:03:24.579Z,1014.97
2019-02-18T03:04:24.524Z,1014.99
2019-02-18T03:05:24.530Z,1014.92
2019-02-18T03:06:24.511Z,1014.93
2019-02-18T03:07:24.504Z,1014.96
2019-02-18T03:08:24.492Z,1014.92
2019-02-18T03:09:24.481Z,1014.98
2019-02-18T03:10:24.466Z,1014.93
2019-02-18T03:11:24.459Z,1014.92
2019-02-18T03:12:24.451Z,1014.93
2019-02-18T03:13:24.436Z,1014.95
2019-02-18T03:14:24.446Z,1014.95
2019-02-18T03:15:24.411Z,1014.99
2019-02-18T03:16:24.399Z,1015.00
2019-02-18T03:17:24.395Z,1014.98
2019-02-18T03:18:24.388Z,1015.01
2019-02-18T03:19:24.371Z,1015.00
2019-02-18T03:20:24.373Z,1015.03
2019-02-18T03:21:24.346Z,1015.06
2019-02-18T03:22:24.335Z,1015.06
2019-02-18T03:23:24.331Z,1015.07
2019-02-18T03:24:24.331Z,1015.05
2019-02-18T03:25:24.320Z,1015.04
2019-02-18T03:26:24.309Z,1015.05
2019-02-18T03:27:24.289Z,1015.04
2019-02-18T03:28:24.286Z,1015.06
2019-02-18T03:29:24.263Z,1015.06
2019-02-18T03:30:24.270Z,1015.07
2019-02-18T03:31:24.253Z,1015.03
2019-02-18T03:32:24.236Z,1015.04
2019-02-18T03:33:24.222Z,1015.06
2019-02-18T03:34:24.217Z,1015.06
2019-02-18T03:35:24.216Z,1015.09
2019-02-18T03:36:24.202Z,1015.13
2019-02-18T03:37:24.184Z,1015.08
2019-02-18T03:38:31.265Z,1015.09
2019-02-18T03:39:25.160Z,1015.12
2019-02-18T03:40:24.148Z,1015.13
2019-02-18T03:41:24.147Z,1015.09
2019-02-18T03:42:24.129Z,1015.12
2019-02-18T03:43:24.118Z,1015.09
2019-02-18T03:44:24.109Z,1015.07
2019-02-18T03:45:24.095Z,1015.11
2019-02-18T03:46:24.093Z,1015.05
2019-02-18T03:47:24.075Z,1015.11
2019-02-18T03:48:24.078Z,1015.10
2019-02-18T03:49:24.055Z,1015.08
2019-02-18T03:50:24.046Z,1015.07
2019-02-18T03:51:24.072Z,1015.06
2019-02-18T03:52:24.028Z,1015.05
2019-02-18T03:53:24.013Z,1015.06
2019-02-18T03:54:24.004Z,1015.06
2019-02-18T03:55:23.996Z,1015.07
2019-02-18T03:56:23.990Z,1015.05
2019-02-18T03:57:23.987Z,1015.03
2019-02-18T03:58:23.961Z,1015.05
2019-02-18T03:59:23.954Z,1015.01
2019-02-18T04:00:23.942Z,1015.02
2019-02-18T04:01:23.946Z,1015.04
2019-02-18T04:02:23.940Z,1015.05
2019-02-18T04:03:23.917Z,1015.02
2019-02-18T04:04:23.903Z,1015.05
2019-02-18T04:05:23.896Z,1015.04
2019-02-18T04:06:23.883Z,1015.00
2019-02-18T04:07:23.875Z,1015.02
2019-02-18T04:08:23.911Z,1015.00
2019-02-18T04:09:23.846Z,1015.00
2019-02-18T04:10:23.837Z,1015.02
2019-02-18T04:11:23.834Z,1015.02
2019-02-18T04:12:23.818Z,1015.04
2019-02-18T04:13:23.818Z,1015.02
2019-02-18T04:14:23.816Z,1015.02
2019-02-18T04:15:23.786Z,1015.04
2019-02-18T04:16:23.775Z,1015.04
2019-02-18T04:17:23.768Z,1015.02
2019-02-18T04:18:23.755Z,1015.06
2019-02-18T04:19:23.772Z,1015.01
2019-02-18T04:20:23.733Z,1015.04
2019-02-18T04:21:23.727Z,1015.04
2019-02-18T04:22:23.719Z,1015.06
2019-02-18T04:23:23.701Z,1015.05
2019-02-18T04:24:23.707Z,1015.10
2019-02-18T04:25:23.691Z,1015.09
2019-02-18T04:26:23.676Z,1015.05
2019-02-18T04:27:23.660Z,1015.05
2019-02-18T04:28:23.657Z,1015.06
2019-02-18T04:29:23.638Z,1015.07
2019-02-18T04:30:23.668Z,1015.08
2019-02-18T04:31:23.625Z,1015.09
2019-02-18T04:32:23.610Z,1015.06
2019-02-18T04:33:23.602Z,1015.01
2019-02-18T04:34:23.592Z,1015.04
2019-02-18T04:35:23.583Z,1015.02
2019-02-18T04:36:23.581Z,1015.03
2019-02-18T04:37:23.558Z,1015.00
2019-02-18T04:38:23.884Z,1015.04
2019-02-18T04:39:23.653Z,1015.05
2019-02-18T04:40:23.681Z,1015.02
2019-02-18T04:41:23.557Z,1015.03
2019-02-18T04:42:23.507Z,1015.05
2019-02-18T04:43:23.495Z,1015.06
2019-02-18T04:44:23.490Z,1015.07
2019-02-18T04:45:23.478Z,1015.04
2019-02-18T04:46:23.478Z,1015.06
2019-02-18T04:47:23.470Z,1015.03
2019-02-18T04:48:23.446Z,1015.05
2019-02-18T04:49:23.434Z,1015.02
2019-02-18T04:50:23.429Z,1015.00
2019-02-18T04:51:23.426Z,1014.97
2019-02-18T04:52:23.439Z,1015.03
2019-02-18T04:53:23.391Z,1015.08
2019-02-18T04:54:23.399Z,1015.05
2019-02-18T04:55:23.373Z,1015.04
2019-02-18T04:56:23.366Z,1015.04
2019-02-18T04:57:23.352Z,1015.04
2019-02-18T04:58:23.357Z,1015.02
2019-02-18T04:59:23.332Z,1014.98
2019-02-18T05:00:23.324Z,1014.97
2019-02-18T05:01:23.315Z,1014.99
2019-02-18T05:02:23.315Z,1014.97
2019-02-18T05:03:23.296Z,1014.96
2019-02-18T05:04:23.282Z,1014.98
2019-02-18T05:05:23.274Z,1014.99
2019-02-18T05:06:25.420Z,1015.00
2019-02-18T05:07:23.253Z,1014.98
2019-02-18T05:08:23.285Z,1014.98
2019-02-18T05:09:23.229Z,1014.95
2019-02-18T05:10:23.236Z,1014.94
2019-02-18T05:11:23.206Z,1014.94
2019-02-18T05:12:23.203Z,1015.00
2019-02-18T05:13:23.189Z,1014.96
2019-02-18T05:14:23.182Z,1014.94
2019-02-18T05:15:23.168Z,1014.94
2019-02-18T05:16:23.156Z,1014.89
2019-02-18T05:17:23.163Z,1014.90
2019-02-18T05:18:23.135Z,1014.88
2019-02-18T05:19:23.191Z,1014.86
2019-02-18T05:20:23.132Z,1014.87
2019-02-18T05:21:23.105Z,1014.82
2019-02-18T05:22:23.091Z,1014.81
2019-02-18T05:23:23.142Z,1014.84
2019-02-18T05:24:23.072Z,1014.82
2019-02-18T05:25:23.060Z,1014.82
2019-02-18T05:26:23.050Z,1014.84
2019-02-18T05:27:33.036Z,1014.82
2019-02-18T05:28:24.043Z,1014.82
2019-02-18T05:29:23.028Z,1014.80
2019-02-18T05:30:23.020Z,1014.81
2019-02-18T05:31:23.015Z,1014.87
2019-02-18T05:32:22.986Z,1014.86
2019-02-18T05:33:22.981Z,1014.92
2019-02-18T05:34:22.980Z,1014.86
2019-02-18T05:35:22.971Z,1014.86
2019-02-18T05:36:23.049Z,1014.82
2019-02-18T05:37:22.935Z,1014.88
2019-02-18T05:38:22.954Z,1014.89
2019-02-18T05:39:22.920Z,1014.88
2019-02-18T05:40:22.948Z,1014.89
2019-02-18T05:41:22.903Z,1014.91
2019-02-18T05:42:22.890Z,1014.87
2019-02-18T05:43:22.872Z,1014.89
2019-02-18T05:44:22.860Z,1014.85
2019-02-18T05:45:22.886Z,1014.90
2019-02-18T05:46:22.855Z,1014.84
2019-02-18T05:47:22.839Z,1014.86
2019-02-18T05:48:22.828Z,1014.81
2019-02-18T05:49:22.810Z,1014.82
2019-02-18T05:51:31.598Z,1014.81
2019-02-18T05:52:31.559Z,1014.80
2019-02-18T05:53:31.552Z,1014.75
2019-02-18T05:54:31.534Z,1014.76
2019-02-18T05:55:31.530Z,1014.79
2019-02-18T05:56:31.520Z,1014.79
2019-02-18T05:57:31.528Z,1014.78
2019-02-18T05:58:31.492Z,1014.76
2019-02-18T05:59:31.486Z,1014.84
2019-02-18T06:00:31.476Z,1014.84
2019-02-18T06:01:31.468Z,1014.83
2019-02-18T06:02:31.490Z,1014.89
2019-02-18T06:03:31.446Z,1014.90
2019-02-18T06:04:31.432Z,1014.94
2019-02-18T06:05:32.298Z,1014.92
2019-02-18T06:06:31.411Z,1014.93
2019-02-18T06:07:31.401Z,1014.93
2019-02-18T06:08:31.408Z,1014.91
2019-02-18T06:09:31.407Z,1014.93
2019-02-18T06:10:31.368Z,1014.90
2019-02-18T06:11:31.355Z,1014.88
2019-02-18T06:12:31.362Z,1014.89
2019-02-18T06:13:31.360Z,1014.88
2019-02-18T06:14:31.331Z,1014.86
2019-02-18T06:15:31.322Z,1014.91
2019-02-18T06:16:31.303Z,1014.91
2019-02-18T06:17:31.302Z,1014.97
2019-02-18T06:18:31.285Z,1014.98
2019-02-18T06:19:31.276Z,1014.91
2019-02-18T06:20:31.272Z,1014.96
2019-02-18T06:21:31.253Z,1014.90
2019-02-18T06:22:31.290Z,1014.94
2019-02-18T06:23:31.230Z,1014.98
2019-02-18T06:24:31.278Z,1014.94
2019-02-18T06:25:31.217Z,1014.93
2019-02-18T06:26:31.203Z,1014.94
2019-02-18T06:27:31.205Z,1014.93
2019-02-18T06:28:31.214Z,1014.96
2019-02-18T06:29:31.176Z,1014.94
2019-02-18T06:30:31.157Z,1014.95
2019-02-18T06:31:31.145Z,1014.99
2019-02-18T06:32:31.147Z,1014.95
2019-02-18T06:33:31.124Z,1014.99
2019-02-18T06:34:31.156Z,1014.95
2019-02-18T06:35:31.108Z,1014.98
2019-02-18T06:36:31.094Z,1014.95
2019-02-18T06:37:31.093Z,1014.95
2019-02-18T06:38:31.081Z,1015.00
2019-02-18T06:39:40.894Z,1014.97
2019-02-18T06:40:32.060Z,1014.96
2019-02-18T06:41:31.040Z,1014.93
2019-02-18T06:42:31.033Z,1014.96
2019-02-18T06:43:31.024Z,1014.99
2019-02-18T06:44:31.021Z,1015.04
2019-02-18T06:45:31.018Z,1015.02
2019-02-18T06:46:30.987Z,1015.03
2019-02-18T06:47:30.978Z,1015.01
2019-02-18T06:48:30.973Z,1015.06
2019-02-18T06:49:30.993Z,1015.05
2019-02-18T06:50:30.952Z,1015.10
2019-02-18T06:51:30.940Z,1015.14
2019-02-18T06:52:32.630Z,1015.12
2019-02-18T06:53:30.914Z,1015.12
2019-02-18T06:54:30.909Z,1015.15
2019-02-18T06:55:30.904Z,1015.15
2019-02-18T06:56:30.885Z,1015.15
2019-02-18T06:57:30.872Z,1015.12
2019-02-18T06:58:30.867Z,1015.13
2019-02-18T06:59:30.856Z,1015.11
2019-02-18T07:00:30.873Z,1015.11
2019-02-18T07:01:30.832Z,1015.16
2019-02-18T07:02:30.843Z,1015.12
2019-02-18T07:03:30.816Z,1015.17
2019-02-18T07:04:30.798Z,1015.17
2019-02-18T07:05:30.793Z,1015.20
2019-02-18T07:06:30.801Z,1015.21
2019-02-18T07:07:30.804Z,1015.22
2019-02-18T07:08:30.762Z,1015.27
2019-02-18T07:09:30.752Z,1015.24
2019-02-18T07:10:30.739Z,1015.24
2019-02-18T07:11:30.729Z,1015.23
2019-02-18T07:12:30.719Z,1015.22
2019-02-18T07:13:30.720Z,1015.24
2019-02-18T07:14:30.700Z,1015.23
2019-02-18T07:15:30.683Z,1015.24
2019-02-18T07:16:30.673Z,1015.24
2019-02-18T07:17:30.663Z,1015.26
2019-02-18T07:18:30.673Z,1015.22
2019-02-18T07:19:30.640Z,1015.20
2019-02-18T07:20:30.641Z,1015.21
2019-02-18T07:21:30.631Z,1015.19
2019-02-18T07:22:30.615Z,1015.23
2019-02-18T07:23:30.613Z,1015.23
2019-02-18T07:24:30.601Z,1015.23
2019-02-18T07:25:30.589Z,1015.25
2019-02-18T07:26:30.578Z,1015.22
2019-02-18T07:27:30.558Z,1015.27
2019-02-18T07:28:30.565Z,1015.20
2019-02-18T07:29:30.536Z,1015.22
2019-02-18T07:30:30.531Z,1015.18
2019-02-18T07:31:30.521Z,1015.22
2019-02-18T07:32:30.516Z,1015.18
2019-02-18T07:33:30.509Z,1015.21
2019-02-18T07:34:30.484Z,1015.22
2019-02-18T07:35:30.487Z,1015.20
2019-02-18T07:36:30.467Z,1015.23
2019-02-18T07:37:30.461Z,1015.18
2019-02-18T07:38:30.442Z,1015.24
2019-02-18T07:39:30.455Z,1015.21
2019-02-18T07:40:30.426Z,1015.23
2019-02-18T07:41:30.417Z,1015.22
2019-02-18T07:42:30.404Z,1015.23
2019-02-18T07:43:30.391Z,1015.26
2019-02-18T07:44:30.400Z,1015.21
2019-02-18T07:45:30.386Z,1015.23
2019-02-18T07:46:30.362Z,1015.23
2019-02-18T07:47:30.352Z,1015.27
2019-02-18T07:48:30.349Z,1015.25
2019-02-18T07:49:30.330Z,1015.27
2019-02-18T07:50:30.354Z,1015.21
2019-02-18T07:51:30.310Z,1015.22
2019-02-18T07:52:30.301Z,1015.23
2019-02-18T07:53:30.288Z,1015.28
2019-02-18T07:54:30.272Z,1015.18
2019-02-18T07:55:30.275Z,1015.25
2019-02-18T07:56:30.268Z,1015.21
2019-02-18T07:57:30.241Z,1015.22
2019-02-18T07:58:30.236Z,1015.25
2019-02-18T07:59:30.220Z,1015.19
2019-02-18T08:00:30.209Z,1015.21
2019-02-18T08:01:30.220Z,1015.16
2019-02-18T08:02:30.200Z,1015.18
2019-02-18T08:03:30.183Z,1015.18
2019-02-18T08:04:30.175Z,1015.16
2019-02-18T08:05:30.158Z,1015.14
2019-02-18T08:06:30.166Z,1015.18
2019-02-18T08:07:30.138Z,1015.16
2019-02-18T08:08:30.125Z,1015.18
2019-02-18T08:09:30.114Z,1015.25
2019-02-18T08:10:30.104Z,1015.20
2019-02-18T08:11:30.127Z,1015.23
2019-02-18T08:12:30.087Z,1015.23
2019-02-18T08:13:30.077Z,1015.19
2019-02-18T08:14:30.065Z,1015.17
2019-02-18T08:15:30.056Z,1015.20
2019-02-18T08:16:30.045Z,1015.19
2019-02-18T08:17:30.062Z,1015.17
2019-02-18T08:18:30.024Z,1015.17
2019-02-18T08:19:30.015Z,1015.19
2019-02-18T08:20:30.003Z,1015.18
2019-02-18T08:21:29.990Z,1015.16
2019-02-18T08:22:29.989Z,1015.18
2019-02-18T08:23:29.979Z,1015.21
2019-02-18T08:24:29.967Z,1015.23
2019-02-18T08:25:29.944Z,1015.23
2019-02-18T08:26:29.950Z,1015.24
2019-02-18T08:27:29.976Z,1015.22
2019-02-18T08:28:29.920Z,1015.21
2019-02-18T08:29:37.811Z,1015.21
2019-02-18T08:30:29.892Z,1015.22
2019-02-18T08:31:29.888Z,1015.21
2019-02-18T08:32:29.874Z,1015.20
2019-02-18T08:33:29.873Z,1015.21
2019-02-18T08:34:29.857Z,1015.15
2019-02-18T08:35:29.843Z,1015.21
2019-02-18T08:36:29.831Z,1015.13
2019-02-18T08:37:30.423Z,1015.14
2019-02-18T08:38:29.815Z,1015.11
2019-02-18T08:39:29.824Z,1015.12
2019-02-18T08:40:29.791Z,1015.13
2019-02-18T08:41:29.776Z,1015.12
2019-02-18T08:42:29.768Z,1015.14
2019-02-18T08:43:29.762Z,1015.14
2019-02-18T08:44:29.750Z,1015.11
2019-02-18T08:45:29.791Z,1015.14
2019-02-18T08:46:29.726Z,1015.13
2019-02-18T08:47:29.715Z,1015.13
2019-02-18T08:48:29.705Z,1015.15
2019-02-18T08:49:29.704Z,1015.08
2019-02-18T08:50:29.678Z,1015.08
2019-02-18T08:51:29.711Z,1015.14
2019-02-18T08:52:29.664Z,1015.11
2019-02-18T08:53:29.647Z,1015.17
2019-02-18T08:54:29.636Z,1015.20
2019-02-18T08:55:29.628Z,1015.24
2019-02-18T08:56:29.614Z,1015.20
2019-02-18T08:57:29.611Z,1015.20
2019-02-18T08:58:29.592Z,1015.23
2019-02-18T08:59:29.585Z,1015.24
2019-02-18T09:00:29.574Z,1015.21
2019-02-18T09:01:29.578Z,1015.20
2019-02-18T09:02:29.569Z,1015.18
2019-02-18T09:03:29.544Z,1015.22
2019-02-18T09:04:29.534Z,1015.12
2019-02-18T09:05:29.523Z,1015.19
2019-02-18T09:06:29.520Z,1015.10
2019-02-18T09:07:29.537Z,1015.11
2019-02-18T09:08:29.488Z,1015.10
2019-02-18T09:09:29.474Z,1015.06
2019-02-18T09:10:33.433Z,1015.03
2019-02-18T09:11:29.460Z,1015.04
2019-02-18T09:12:29.442Z,1015.02
2019-02-18T09:13:29.445Z,1015.05
2019-02-18T09:14:29.423Z,1015.01
2019-02-18T09:15:29.416Z,1015.01
2019-02-18T09:16:29.399Z,1014.96
2019-02-18T09:17:29.393Z,1014.97
2019-02-18T09:18:29.419Z,1014.97
2019-02-18T09:19:29.372Z,1014.95
2019-02-18T09:20:29.357Z,1015.01
2019-02-18T09:21:29.351Z,1015.03
2019-02-18T09:22:29.335Z,1014.99
2019-02-18T09:23:29.336Z,1015.01
2019-02-18T09:24:29.344Z,1015.01
2019-02-18T09:25:29.309Z,1014.99
2019-02-18T09:26:29.299Z,1014.97
2019-02-18T09:27:29.284Z,1015.01
2019-02-18T09:28:29.281Z,1014.96
2019-02-18T09:29:29.309Z,1014.95
2019-02-18T09:30:29.264Z,1014.94
2019-02-18T09:31:29.238Z,1014.93
2019-02-18T09:32:29.232Z,1014.89
2019-02-18T09:33:29.223Z,1014.87
2019-02-18T09:34:29.215Z,1014.89
2019-02-18T09:35:29.206Z,1014.98
2019-02-18T09:36:29.198Z,1014.90
2019-02-18T09:37:29.173Z,1014.87
2019-02-18T09:38:29.165Z,1014.86
2019-02-18T09:39:31.397Z,1014.86
2019-02-18T09:40:29.153Z,1014.90
2019-02-18T09:41:29.130Z,1014.84
2019-02-18T09:42:29.120Z,1014.87
2019-02-18T09:43:29.115Z,1014.91
2019-02-18T09:44:29.102Z,1014.90
2019-02-18T09:45:29.096Z,1014.87
2019-02-18T09:46:29.077Z,1014.85
2019-02-18T09:47:29.070Z,1014.89
2019-02-18T09:48:29.057Z,1014.81
2019-02-18T09:49:29.043Z,1014.90
2019-02-18T09:50:29.040Z,1014.88
2019-02-18T09:51:29.037Z,1014.83
2019-02-18T09:52:29.063Z,1014.79
2019-02-18T09:53:28.999Z,1014.85
2019-02-18T09:54:28.995Z,1014.83
2019-02-18T09:55:28.990Z,1014.85
2019-02-18T09:56:28.982Z,1014.91
2019-02-18T09:57:28.957Z,1014.91
2019-02-18T09:58:28.955Z,1014.80
2019-02-18T09:59:28.939Z,1014.77
2019-02-18T10:00:28.938Z,1014.81
2019-02-18T10:01:28.914Z,1014.80
2019-02-18T10:02:28.903Z,1014.74
2019-02-18T10:03:32.076Z,1014.76
2019-02-18T10:04:28.881Z,1014.72
2019-02-18T10:05:28.928Z,1014.76
2019-02-18T10:06:28.862Z,1014.77
2019-02-18T10:07:28.857Z,1014.77
2019-02-18T10:08:28.842Z,1014.83
2019-02-18T10:09:28.832Z,1014.83
2019-02-18T10:10:28.819Z,1014.84
2019-02-18T10:11:28.823Z,1014.82
2019-02-18T10:12:28.798Z,1014.82
2019-02-18T10:13:28.801Z,1014.85
2019-02-18T10:14:28.778Z,1014.77
2019-02-18T10:15:28.777Z,1014.79
2019-02-18T10:16:28.752Z,1014.81
2019-02-18T10:17:28.743Z,1014.81
2019-02-18T10:18:28.731Z,1014.79
2019-02-18T10:19:28.728Z,1014.80
2019-02-18T10:20:28.709Z,1014.86
2019-02-18T10:21:28.736Z,1014.78
2019-02-18T10:22:28.687Z,1014.77
2019-02-18T10:23:28.689Z,1014.82
2019-02-18T10:24:28.665Z,1014.86
2019-02-18T10:25:28.656Z,1014.85
2019-02-18T10:26:28.658Z,1014.81
2019-02-18T10:27:28.683Z,1014.76
2019-02-18T10:28:28.630Z,1014.69
2019-02-18T10:29:28.616Z,1014.75
2019-02-18T10:30:28.607Z,1014.74
2019-02-18T10:31:28.614Z,1014.72
2019-02-18T10:32:28.580Z,1014.71
2019-02-18T10:33:28.570Z,1014.71
2019-02-18T10:34:28.559Z,1014.72
2019-02-18T10:35:28.548Z,1014.66
2019-02-18T10:36:28.574Z,1014.71
2019-02-18T10:37:28.534Z,1014.72
2019-02-18T10:38:28.520Z,1014.68
2019-02-18T10:39:28.505Z,1014.66
2019-02-18T10:40:28.496Z,1014.63
2019-02-18T10:41:28.490Z,1014.58
2019-02-18T10:42:28.482Z,1014.59
2019-02-18T10:43:32.356Z,1014.57
2019-02-18T10:44:28.450Z,1014.58
2019-02-18T10:45:28.445Z,1014.56
2019-02-18T10:46:28.434Z,1014.58
2019-02-18T10:47:28.431Z,1014.56
2019-02-18T10:48:28.407Z,1014.56
2019-02-18T10:49:28.396Z,1014.56
2019-02-18T10:50:28.394Z,1014.53
2019-02-18T10:51:28.380Z,1014.50
2019-02-18T10:52:28.399Z,1014.53
2019-02-18T10:53:28.357Z,1014.51
2019-02-18T10:54:28.344Z,1014.44
2019-02-18T10:55:28.336Z,1014.41
2019-02-18T10:56:28.322Z,1014.44
2019-02-18T10:57:28.315Z,1014.46
2019-02-18T10:58:28.316Z,1014.51
2019-02-18T10:59:28.289Z,1014.51
2019-02-18T11:00:28.277Z,1014.46
2019-02-18T11:01:28.266Z,1014.53
2019-02-18T11:02:28.257Z,1014.45
2019-02-18T11:03:28.265Z,1014.52
2019-02-18T11:04:28.248Z,1014.48
2019-02-18T11:05:28.224Z,1014.39
2019-02-18T11:06:28.219Z,1014.32
2019-02-18T11:07:28.203Z,1014.33
2019-02-18T11:08:28.252Z,1014.34
2019-02-18T11:09:28.191Z,1014.33
2019-02-18T11:10:28.177Z,1014.30
2019-02-18T11:11:28.166Z,1014.22
2019-02-18T11:12:28.152Z,1014.20
2019-02-18T11:13:28.151Z,1014.22
2019-02-18T11:14:28.155Z,1014.35
2019-02-18T11:15:28.116Z,1014.31
2019-02-18T11:16:28.111Z,1014.28
2019-02-18T11:17:38.493Z,1014.29
2019-02-18T11:18:29.096Z,1014.27
2019-02-18T11:19:28.073Z,1014.26
2019-02-18T11:20:28.063Z,1014.24
2019-02-18T11:21:28.053Z,1014.19
2019-02-18T11:22:28.046Z,1014.13
2019-02-18T11:23:28.045Z,1014.17
2019-02-18T11:24:28.025Z,1014.15
2019-02-18T11:25:28.016Z,1014.14
2019-02-18T11:26:28.013Z,1014.22
2019-02-18T11:27:27.994Z,1014.20
2019-02-18T11:28:27.986Z,1014.21
2019-02-18T11:29:27.968Z,1014.14
2019-02-18T11:30:27.973Z,1014.10
2019-02-18T11:31:27.952Z,1014.06
2019-02-18T11:32:27.936Z,1014.06
2019-02-18T11:33:27.931Z,1014.08
2019-02-18T11:34:27.918Z,1014.09
2019-02-18T11:35:28.814Z,1014.12
2019-02-18T11:36:27.894Z,1014.05
2019-02-18T11:37:27.889Z,1014.07
2019-02-18T11:38:27.878Z,1014.07
2019-02-18T11:39:27.861Z,1014.07
2019-02-18T11:40:27.853Z,1014.04
2019-02-18T11:41:27.885Z,1014.06
2019-02-18T11:42:27.842Z,1014.04
2019-02-18T11:43:27.824Z,1014.01
2019-02-18T11:44:27.813Z,1014.02
2019-02-18T11:45:27.810Z,1013.93
2019-02-18T11:46:27.806Z,1013.88
2019-02-18T11:47:27.777Z,1013.81
2019-02-18T11:48:27.775Z,1013.82
2019-02-18T11:49:27.760Z,1013.82
2019-02-18T11:50:27.746Z,1013.82
2019-02-18T11:51:27.743Z,1013.76
2019-02-18T11:52:27.731Z,1013.78
2019-02-18T11:53:27.720Z,1013.78
2019-02-18T11:54:27.712Z,1013.76
2019-02-18T11:55:27.700Z,1013.80
2019-02-18T11:56:27.682Z,1013.73
2019-02-18T11:57:27.686Z,1013.75
2019-02-18T11:58:27.662Z,1013.73
2019-02-18T11:59:27.657Z,1013.74
2019-02-18T12:00:27.639Z,1013.70
2019-02-18T12:01:28.397Z,1013.74
2019-02-18T12:02:27.627Z,1013.73
2019-02-18T12:03:27.612Z,1013.74
2019-02-18T12:04:27.607Z,1013.75
2019-02-18T12:05:27.586Z,1013.77
2019-02-18T12:06:27.581Z,1013.80